sensor_id;sensor_type;location;lat;lon;timestamp;P1;durP1;ratioP1;P2;durP2;ratioP2
26594;SDS011;14238;49.496;8.154;2023-06-10T00:01:40;13.83;;;12.83;;
26594;SDS011;14238;49.496;8.154;2023-06-10T00:04:06;13.73;;;12.70;;
26594;SDS011;14238;49.496;8.154;2023-06-10T00:06:32;14.43;;;13.43;;
26594;SDS011;14238;49.496;8.154;2023-06-10T00:09:07;14.37;;;13.40;;
26594;SDS011;14238;49.496;8.154;2023-06-10T00:11:35;13.53;;;12.60;;
26594;SDS011;14238;49.496;8.154;2023-06-10T00:14:02;13.27;;;12.37;;
26594;SDS011;14238;49.496;8.154;2023-06-10T00:16:28;12.70;;;12.00;;
26594;SDS011;14238;49.496;8.154;2023-06-10T00:18:54;14.40;;;13.40;;
26594;SDS011;14238;49.496;8.154;2023-06-10T00:21:28;13.60;;;12.70;;
26594;SDS011;14238;49.496;8.154;2023-06-10T00:24:06;14.07;;;13.17;;
26594;SDS011;14238;49.496;8.154;2023-06-10T00:26:34;14.13;;;13.23;;
26594;SDS011;14238;49.496;8.154;2023-06-10T00:29:00;13.30;;;12.40;;
26594;SDS011;14238;49.496;8.154;2023-06-10T00:31:26;13.90;;;12.90;;
26594;SDS011;14238;49.496;8.154;2023-06-10T00:33:51;13.60;;;12.60;;
26594;SDS011;14238;49.496;8.154;2023-06-10T00:36:17;13.50;;;12.60;;
26594;SDS011;14238;49.496;8.154;2023-06-10T00:38:43;13.33;;;12.43;;
26594;SDS011;14238;49.496;8.154;2023-06-10T00:41:08;13.47;;;12.47;;
26594;SDS011;14238;49.496;8.154;2023-06-10T00:43:34;14.00;;;13.00;;
26594;SDS011;14238;49.496;8.154;2023-06-10T00:45:59;13.17;;;12.30;;
26594;SDS011;14238;49.496;8.154;2023-06-10T00:48:25;14.00;;;13.00;;
26594;SDS011;14238;49.496;8.154;2023-06-10T00:50:51;13.67;;;12.77;;
26594;SDS011;14238;49.496;8.154;2023-06-10T00:53:17;13.87;;;12.77;;
26594;SDS011;14238;49.496;8.154;2023-06-10T00:55:43;13.37;;;12.47;;
26594;SDS011;14238;49.496;8.154;2023-06-10T00:58:09;14.47;;;13.47;;
26594;SDS011;14238;49.496;8.154;2023-06-10T01:00:35;13.83;;;12.93;;
26594;SDS011;14238;49.496;8.154;2023-06-10T01:03:01;13.90;;;12.70;;
26594;SDS011;14238;49.496;8.154;2023-06-10T01:05:27;13.60;;;12.60;;
26594;SDS011;14238;49.496;8.154;2023-06-10T01:11:17;15.47;;;14.37;;
26594;SDS011;14238;49.496;8.154;2023-06-10T01:13:38;14.33;;;13.13;;
26594;SDS011;14238;49.496;8.154;2023-06-10T01:16:06;13.67;;;12.77;;
26594;SDS011;14238;49.496;8.154;2023-06-10T01:18:32;13.93;;;13.03;;
26594;SDS011;14238;49.496;8.154;2023-06-10T01:20:58;14.53;;;13.33;;
26594;SDS011;14238;49.496;8.154;2023-06-10T01:23:23;14.07;;;12.90;;
26594;SDS011;14238;49.496;8.154;2023-06-10T01:25:52;13.87;;;12.97;;
26594;SDS011;14238;49.496;8.154;2023-06-10T01:28:31;13.93;;;12.73;;
26594;SDS011;14238;49.496;8.154;2023-06-10T01:33:43;13.47;;;12.57;;
26594;SDS011;14238;49.496;8.154;2023-06-10T01:36:12;14.77;;;13.67;;
26594;SDS011;14238;49.496;8.154;2023-06-10T01:38:40;12.93;;;12.13;;
26594;SDS011;14238;49.496;8.154;2023-06-10T01:41:09;14.60;;;13.50;;
26594;SDS011;14238;49.496;8.154;2023-06-10T01:43:39;14.20;;;13.23;;
26594;SDS011;14238;49.496;8.154;2023-06-10T01:46:05;13.70;;;12.70;;
26594;SDS011;14238;49.496;8.154;2023-06-10T01:48:31;13.50;;;12.50;;
26594;SDS011;14238;49.496;8.154;2023-06-10T01:50:57;14.80;;;13.47;;
26594;SDS011;14238;49.496;8.154;2023-06-10T01:53:23;14.57;;;13.40;;
26594;SDS011;14238;49.496;8.154;2023-06-10T01:55:48;12.33;;;11.50;;
26594;SDS011;14238;49.496;8.154;2023-06-10T01:58:14;13.40;;;12.50;;
26594;SDS011;14238;49.496;8.154;2023-06-10T02:00:40;13.47;;;12.67;;
26594;SDS011;14238;49.496;8.154;2023-06-10T02:03:05;13.30;;;12.40;;
26594;SDS011;14238;49.496;8.154;2023-06-10T02:05:31;13.80;;;12.90;;
26594;SDS011;14238;49.496;8.154;2023-06-10T02:07:57;13.67;;;12.67;;
26594;SDS011;14238;49.496;8.154;2023-06-10T02:10:22;13.30;;;12.27;;
26594;SDS011;14238;49.496;8.154;2023-06-10T02:12:48;12.83;;;12.00;;
26594;SDS011;14238;49.496;8.154;2023-06-10T02:15:14;13.27;;;12.37;;
26594;SDS011;14238;49.496;8.154;2023-06-10T02:17:39;14.03;;;13.03;;
26594;SDS011;14238;49.496;8.154;2023-06-10T02:20:05;13.73;;;12.80;;
26594;SDS011;14238;49.496;8.154;2023-06-10T02:22:32;13.77;;;12.87;;
26594;SDS011;14238;49.496;8.154;2023-06-10T02:24:58;14.07;;;13.07;;
26594;SDS011;14238;49.496;8.154;2023-06-10T02:27:24;14.77;;;13.67;;
26594;SDS011;14238;49.496;8.154;2023-06-10T02:29:49;13.60;;;12.63;;
26594;SDS011;14238;49.496;8.154;2023-06-10T02:32:15;13.77;;;12.77;;
26594;SDS011;14238;49.496;8.154;2023-06-10T02:34:41;14.33;;;13.33;;
26594;SDS011;14238;49.496;8.154;2023-06-10T02:37:07;13.57;;;12.67;;
26594;SDS011;14238;49.496;8.154;2023-06-10T02:39:33;14.20;;;13.10;;
26594;SDS011;14238;49.496;8.154;2023-06-10T02:41:59;13.67;;;12.67;;
26594;SDS011;14238;49.496;8.154;2023-06-10T02:44:24;13.07;;;12.27;;
26594;SDS011;14238;49.496;8.154;2023-06-10T02:46:50;13.70;;;12.70;;
26594;SDS011;14238;49.496;8.154;2023-06-10T02:49:15;13.43;;;12.43;;
26594;SDS011;14238;49.496;8.154;2023-06-10T02:51:41;13.30;;;12.20;;
26594;SDS011;14238;49.496;8.154;2023-06-10T02:54:06;13.57;;;12.57;;
26594;SDS011;14238;49.496;8.154;2023-06-10T02:56:32;13.27;;;12.37;;
26594;SDS011;14238;49.496;8.154;2023-06-10T02:58:58;13.20;;;12.30;;
26594;SDS011;14238;49.496;8.154;2023-06-10T03:01:24;12.63;;;11.30;;
26594;SDS011;14238;49.496;8.154;2023-06-10T03:03:49;13.10;;;12.30;;
26594;SDS011;14238;49.496;8.154;2023-06-10T03:06:15;13.33;;;12.33;;
26594;SDS011;14238;49.496;8.154;2023-06-10T03:08:41;13.27;;;12.47;;
26594;SDS011;14238;49.496;8.154;2023-06-10T03:11:07;12.87;;;12.07;;
26594;SDS011;14238;49.496;8.154;2023-06-10T03:13:33;12.37;;;11.67;;
26594;SDS011;14238;49.496;8.154;2023-06-10T03:15:59;12.77;;;11.90;;
26594;SDS011;14238;49.496;8.154;2023-06-10T03:18:25;13.70;;;12.50;;
26594;SDS011;14238;49.496;8.154;2023-06-10T03:20:52;12.90;;;12.03;;
26594;SDS011;14238;49.496;8.154;2023-06-10T03:23:19;13.03;;;12.20;;
26594;SDS011;14238;49.496;8.154;2023-06-10T03:25:45;12.97;;;11.97;;
26594;SDS011;14238;49.496;8.154;2023-06-10T03:28:11;13.83;;;12.83;;
26594;SDS011;14238;49.496;8.154;2023-06-10T03:30:36;13.93;;;13.00;;
26594;SDS011;14238;49.496;8.154;2023-06-10T03:33:02;13.90;;;12.90;;
26594;SDS011;14238;49.496;8.154;2023-06-10T03:35:27;12.43;;;11.60;;
26594;SDS011;14238;49.496;8.154;2023-06-10T03:37:54;14.17;;;13.03;;
26594;SDS011;14238;49.496;8.154;2023-06-10T03:40:19;12.20;;;11.40;;
26594;SDS011;14238;49.496;8.154;2023-06-10T03:42:45;13.87;;;12.50;;
26594;SDS011;14238;49.496;8.154;2023-06-10T03:45:11;13.40;;;12.30;;
26594;SDS011;14238;49.496;8.154;2023-06-10T03:47:37;13.73;;;12.77;;
26594;SDS011;14238;49.496;8.154;2023-06-10T03:50:03;13.97;;;13.10;;
26594;SDS011;14238;49.496;8.154;2023-06-10T03:52:29;12.73;;;11.90;;
26594;SDS011;14238;49.496;8.154;2023-06-10T03:54:55;13.37;;;12.47;;
26594;SDS011;14238;49.496;8.154;2023-06-10T03:57:21;13.63;;;12.67;;
26594;SDS011;14238;49.496;8.154;2023-06-10T03:59:46;12.20;;;11.40;;
26594;SDS011;14238;49.496;8.154;2023-06-10T04:02:12;13.20;;;12.30;;
26594;SDS011;14238;49.496;8.154;2023-06-10T04:04:38;13.30;;;12.20;;
26594;SDS011;14238;49.496;8.154;2023-06-10T04:07:04;12.63;;;11.63;;
26594;SDS011;14238;49.496;8.154;2023-06-10T04:09:30;13.27;;;12.17;;
26594;SDS011;14238;49.496;8.154;2023-06-10T04:11:55;13.37;;;12.13;;
26594;SDS011;14238;49.496;8.154;2023-06-10T04:14:21;13.73;;;12.73;;
26594;SDS011;14238;49.496;8.154;2023-06-10T04:16:47;13.37;;;12.27;;
26594;SDS011;14238;49.496;8.154;2023-06-10T04:19:12;12.30;;;11.50;;
26594;SDS011;14238;49.496;8.154;2023-06-10T04:21:38;13.50;;;12.50;;
26594;SDS011;14238;49.496;8.154;2023-06-10T04:24:03;12.37;;;11.57;;
26594;SDS011;14238;49.496;8.154;2023-06-10T04:26:29;12.10;;;11.40;;
26594;SDS011;14238;49.496;8.154;2023-06-10T04:28:54;12.50;;;11.67;;
26594;SDS011;14238;49.496;8.154;2023-06-10T04:31:20;12.33;;;11.43;;
26594;SDS011;14238;49.496;8.154;2023-06-10T04:33:45;12.70;;;11.90;;
26594;SDS011;14238;49.496;8.154;2023-06-10T04:36:11;13.57;;;12.60;;
26594;SDS011;14238;49.496;8.154;2023-06-10T04:38:37;13.80;;;12.70;;
26594;SDS011;14238;49.496;8.154;2023-06-10T04:41:02;13.10;;;12.20;;
26594;SDS011;14238;49.496;8.154;2023-06-10T04:43:29;12.37;;;11.50;;
26594;SDS011;14238;49.496;8.154;2023-06-10T04:45:55;11.80;;;11.00;;
26594;SDS011;14238;49.496;8.154;2023-06-10T04:48:21;12.50;;;11.50;;
26594;SDS011;14238;49.496;8.154;2023-06-10T04:50:48;11.90;;;11.10;;
26594;SDS011;14238;49.496;8.154;2023-06-10T04:53:15;11.77;;;10.77;;
26594;SDS011;14238;49.496;8.154;2023-06-10T04:55:41;12.00;;;11.30;;
26594;SDS011;14238;49.496;8.154;2023-06-10T04:58:07;13.23;;;12.40;;
26594;SDS011;14238;49.496;8.154;2023-06-10T05:00:32;13.00;;;12.10;;
26594;SDS011;14238;49.496;8.154;2023-06-10T05:02:58;11.67;;;10.77;;
26594;SDS011;14238;49.496;8.154;2023-06-10T05:05:23;12.50;;;11.40;;
26594;SDS011;14238;49.496;8.154;2023-06-10T05:07:49;12.67;;;11.87;;
26594;SDS011;14238;49.496;8.154;2023-06-10T05:10:14;13.67;;;12.47;;
26594;SDS011;14238;49.496;8.154;2023-06-10T05:12:40;12.60;;;11.57;;
26594;SDS011;14238;49.496;8.154;2023-06-10T05:15:06;12.30;;;11.50;;
26594;SDS011;14238;49.496;8.154;2023-06-10T05:17:32;13.10;;;12.20;;
26594;SDS011;14238;49.496;8.154;2023-06-10T05:19:58;12.80;;;11.80;;
26594;SDS011;14238;49.496;8.154;2023-06-10T05:22:23;12.73;;;11.80;;
26594;SDS011;14238;49.496;8.154;2023-06-10T05:24:49;12.90;;;11.80;;
26594;SDS011;14238;49.496;8.154;2023-06-10T05:27:16;11.90;;;11.00;;
26594;SDS011;14238;49.496;8.154;2023-06-10T05:29:41;11.97;;;11.10;;
26594;SDS011;14238;49.496;8.154;2023-06-10T05:32:07;11.93;;;11.10;;
26594;SDS011;14238;49.496;8.154;2023-06-10T05:34:33;12.00;;;11.20;;
26594;SDS011;14238;49.496;8.154;2023-06-10T05:36:59;11.97;;;11.07;;
26594;SDS011;14238;49.496;8.154;2023-06-10T05:39:24;12.47;;;11.57;;
26594;SDS011;14238;49.496;8.154;2023-06-10T05:41:50;13.97;;;12.97;;
26594;SDS011;14238;49.496;8.154;2023-06-10T05:44:15;12.30;;;11.40;;
26594;SDS011;14238;49.496;8.154;2023-06-10T05:46:41;12.70;;;11.57;;
26594;SDS011;14238;49.496;8.154;2023-06-10T05:49:07;12.60;;;11.70;;
26594;SDS011;14238;49.496;8.154;2023-06-10T05:51:32;12.30;;;11.40;;
26594;SDS011;14238;49.496;8.154;2023-06-10T05:53:58;13.00;;;11.80;;
26594;SDS011;14238;49.496;8.154;2023-06-10T05:56:23;12.53;;;11.33;;
26594;SDS011;14238;49.496;8.154;2023-06-10T05:58:50;11.70;;;10.80;;
26594;SDS011;14238;49.496;8.154;2023-06-10T06:01:16;12.50;;;11.40;;
26594;SDS011;14238;49.496;8.154;2023-06-10T06:03:41;11.97;;;11.07;;
26594;SDS011;14238;49.496;8.154;2023-06-10T06:06:07;11.80;;;11.00;;
26594;SDS011;14238;49.496;8.154;2023-06-10T06:08:32;11.20;;;10.50;;
26594;SDS011;14238;49.496;8.154;2023-06-10T06:10:58;11.63;;;10.83;;
26594;SDS011;14238;49.496;8.154;2023-06-10T06:13:23;12.50;;;11.50;;
26594;SDS011;14238;49.496;8.154;2023-06-10T06:15:49;12.70;;;11.63;;
26594;SDS011;14238;49.496;8.154;2023-06-10T06:18:15;11.77;;;10.97;;
26594;SDS011;14238;49.496;8.154;2023-06-10T06:20:41;11.50;;;10.50;;
26594;SDS011;14238;49.496;8.154;2023-06-10T06:23:06;11.17;;;10.40;;
26594;SDS011;14238;49.496;8.154;2023-06-10T06:25:34;12.13;;;11.23;;
26594;SDS011;14238;49.496;8.154;2023-06-10T06:28:01;11.93;;;11.03;;
26594;SDS011;14238;49.496;8.154;2023-06-10T06:30:27;10.67;;;9.97;;
26594;SDS011;14238;49.496;8.154;2023-06-10T06:32:52;11.10;;;10.20;;
26594;SDS011;14238;49.496;8.154;2023-06-10T06:35:18;11.23;;;10.10;;
26594;SDS011;14238;49.496;8.154;2023-06-10T06:37:43;11.13;;;10.33;;
26594;SDS011;14238;49.496;8.154;2023-06-10T06:40:09;10.97;;;10.27;;
26594;SDS011;14238;49.496;8.154;2023-06-10T06:42:35;11.10;;;10.30;;
26594;SDS011;14238;49.496;8.154;2023-06-10T06:45:01;10.50;;;9.60;;
26594;SDS011;14238;49.496;8.154;2023-06-10T06:47:26;11.00;;;10.40;;
26594;SDS011;14238;49.496;8.154;2023-06-10T06:49:52;11.10;;;10.10;;
26594;SDS011;14238;49.496;8.154;2023-06-10T06:52:17;10.93;;;10.23;;
26594;SDS011;14238;49.496;8.154;2023-06-10T06:54:44;11.60;;;10.70;;
26594;SDS011;14238;49.496;8.154;2023-06-10T06:57:09;12.23;;;11.30;;
26594;SDS011;14238;49.496;8.154;2023-06-10T06:59:35;11.80;;;10.97;;
26594;SDS011;14238;49.496;8.154;2023-06-10T07:02:02;10.10;;;9.43;;
26594;SDS011;14238;49.496;8.154;2023-06-10T07:04:28;10.20;;;9.40;;
26594;SDS011;14238;49.496;8.154;2023-06-10T07:06:53;10.80;;;10.10;;
26594;SDS011;14238;49.496;8.154;2023-06-10T07:09:19;11.20;;;10.20;;
26594;SDS011;14238;49.496;8.154;2023-06-10T07:11:45;10.87;;;10.17;;
26594;SDS011;14238;49.496;8.154;2023-06-10T07:14:10;10.37;;;9.67;;
26594;SDS011;14238;49.496;8.154;2023-06-10T07:16:36;11.00;;;10.30;;
26594;SDS011;14238;49.496;8.154;2023-06-10T07:19:01;10.33;;;9.60;;
26594;SDS011;14238;49.496;8.154;2023-06-10T07:21:27;10.73;;;9.83;;
26594;SDS011;14238;49.496;8.154;2023-06-10T07:23:53;10.13;;;9.43;;
26594;SDS011;14238;49.496;8.154;2023-06-10T07:26:19;9.20;;;8.60;;
26594;SDS011;14238;49.496;8.154;2023-06-10T07:28:46;10.50;;;9.50;;
26594;SDS011;14238;49.496;8.154;2023-06-10T07:31:12;10.80;;;10.10;;
26594;SDS011;14238;49.496;8.154;2023-06-10T07:33:38;10.00;;;9.40;;
26594;SDS011;14238;49.496;8.154;2023-06-10T07:36:06;10.20;;;9.60;;
26594;SDS011;14238;49.496;8.154;2023-06-10T07:38:32;10.17;;;9.37;;
26594;SDS011;14238;49.496;8.154;2023-06-10T07:40:58;9.30;;;8.80;;
26594;SDS011;14238;49.496;8.154;2023-06-10T07:43:23;9.87;;;9.03;;
26594;SDS011;14238;49.496;8.154;2023-06-10T07:45:49;8.90;;;8.27;;
26594;SDS011;14238;49.496;8.154;2023-06-10T07:48:15;9.50;;;8.90;;
26594;SDS011;14238;49.496;8.154;2023-06-10T07:50:41;8.43;;;7.73;;
26594;SDS011;14238;49.496;8.154;2023-06-10T07:53:06;8.80;;;8.30;;
26594;SDS011;14238;49.496;8.154;2023-06-10T07:55:32;10.10;;;9.40;;
26594;SDS011;14238;49.496;8.154;2023-06-10T07:57:57;9.60;;;8.90;;
26594;SDS011;14238;49.496;8.154;2023-06-10T08:00:23;9.27;;;8.63;;
26594;SDS011;14238;49.496;8.154;2023-06-10T08:02:49;8.37;;;7.77;;
26594;SDS011;14238;49.496;8.154;2023-06-10T08:05:15;8.90;;;8.40;;
26594;SDS011;14238;49.496;8.154;2023-06-10T08:07:41;8.50;;;7.80;;
26594;SDS011;14238;49.496;8.154;2023-06-10T08:10:07;8.97;;;8.27;;
26594;SDS011;14238;49.496;8.154;2023-06-10T08:12:33;8.13;;;7.63;;
26594;SDS011;14238;49.496;8.154;2023-06-10T08:14:59;8.70;;;7.83;;
26594;SDS011;14238;49.496;8.154;2023-06-10T08:17:25;8.50;;;7.73;;
26594;SDS011;14238;49.496;8.154;2023-06-10T08:19:51;9.33;;;8.73;;
26594;SDS011;14238;49.496;8.154;2023-06-10T08:22:16;8.10;;;7.60;;
26594;SDS011;14238;49.496;8.154;2023-06-10T08:24:42;8.50;;;8.00;;
26594;SDS011;14238;49.496;8.154;2023-06-10T08:27:08;8.47;;;7.83;;
26594;SDS011;14238;49.496;8.154;2023-06-10T08:29:34;9.47;;;8.77;;
26594;SDS011;14238;49.496;8.154;2023-06-10T08:31:59;8.77;;;8.27;;
26594;SDS011;14238;49.496;8.154;2023-06-10T08:34:25;9.00;;;8.40;;
26594;SDS011;14238;49.496;8.154;2023-06-10T08:36:51;8.47;;;7.80;;
26594;SDS011;14238;49.496;8.154;2023-06-10T08:39:20;8.70;;;8.00;;
26594;SDS011;14238;49.496;8.154;2023-06-10T08:44:36;8.37;;;7.77;;
26594;SDS011;14238;49.496;8.154;2023-06-10T08:47:15;8.70;;;8.10;;
26594;SDS011;14238;49.496;8.154;2023-06-10T08:49:45;10.80;;;8.57;;
26594;SDS011;14238;49.496;8.154;2023-06-10T08:52:15;8.00;;;7.50;;
26594;SDS011;14238;49.496;8.154;2023-06-10T08:54:48;8.53;;;7.93;;
26594;SDS011;14238;49.496;8.154;2023-06-10T08:57:22;9.00;;;8.40;;
26594;SDS011;14238;49.496;8.154;2023-06-10T08:59:48;8.40;;;7.90;;
26594;SDS011;14238;49.496;8.154;2023-06-10T09:02:14;9.10;;;8.47;;
26594;SDS011;14238;49.496;8.154;2023-06-10T09:04:42;8.37;;;7.67;;
26594;SDS011;14238;49.496;8.154;2023-06-10T09:07:08;9.10;;;8.50;;
26594;SDS011;14238;49.496;8.154;2023-06-10T09:09:35;8.83;;;8.13;;
26594;SDS011;14238;49.496;8.154;2023-06-10T09:12:01;9.90;;;9.20;;
26594;SDS011;14238;49.496;8.154;2023-06-10T09:14:28;9.83;;;9.17;;
26594;SDS011;14238;49.496;8.154;2023-06-10T09:16:53;9.13;;;8.50;;
26594;SDS011;14238;49.496;8.154;2023-06-10T09:19:21;9.60;;;8.90;;
26594;SDS011;14238;49.496;8.154;2023-06-10T09:21:50;9.10;;;8.30;;
26594;SDS011;14238;49.496;8.154;2023-06-10T09:24:15;9.33;;;8.70;;
26594;SDS011;14238;49.496;8.154;2023-06-10T09:26:41;9.90;;;9.00;;
26594;SDS011;14238;49.496;8.154;2023-06-10T09:29:08;8.47;;;7.97;;
26594;SDS011;14238;49.496;8.154;2023-06-10T09:31:37;9.33;;;8.77;;
26594;SDS011;14238;49.496;8.154;2023-06-10T09:34:13;8.87;;;8.27;;
26594;SDS011;14238;49.496;8.154;2023-06-10T09:36:40;8.70;;;8.20;;
26594;SDS011;14238;49.496;8.154;2023-06-10T09:39:15;9.40;;;8.70;;
26594;SDS011;14238;49.496;8.154;2023-06-10T09:41:42;8.67;;;8.07;;
26594;SDS011;14238;49.496;8.154;2023-06-10T09:44:11;9.60;;;8.70;;
26594;SDS011;14238;49.496;8.154;2023-06-10T09:46:38;8.70;;;7.77;;
26594;SDS011;14238;49.496;8.154;2023-06-10T09:49:03;8.00;;;7.50;;
26594;SDS011;14238;49.496;8.154;2023-06-10T09:51:29;8.07;;;7.63;;
26594;SDS011;14238;49.496;8.154;2023-06-10T09:53:54;8.33;;;7.73;;
26594;SDS011;14238;49.496;8.154;2023-06-10T09:56:20;8.97;;;8.37;;
26594;SDS011;14238;49.496;8.154;2023-06-10T09:58:49;8.47;;;8.07;;
26594;SDS011;14238;49.496;8.154;2023-06-10T10:01:18;11.80;;;10.60;;
26594;SDS011;14238;49.496;8.154;2023-06-10T10:03:44;9.17;;;8.43;;
26594;SDS011;14238;49.496;8.154;2023-06-10T10:06:14;9.63;;;9.07;;
26594;SDS011;14238;49.496;8.154;2023-06-10T10:08:41;9.40;;;8.60;;
26594;SDS011;14238;49.496;8.154;2023-06-10T10:11:08;9.97;;;9.27;;
26594;SDS011;14238;49.496;8.154;2023-06-10T10:13:34;9.30;;;8.50;;
26594;SDS011;14238;49.496;8.154;2023-06-10T10:16:01;9.40;;;8.70;;
26594;SDS011;14238;49.496;8.154;2023-06-10T10:18:31;9.50;;;8.90;;
26594;SDS011;14238;49.496;8.154;2023-06-10T10:21:00;9.13;;;8.63;;
26594;SDS011;14238;49.496;8.154;2023-06-10T10:23:38;10.00;;;9.30;;
26594;SDS011;14238;49.496;8.154;2023-06-10T10:26:26;9.80;;;9.20;;
26594;SDS011;14238;49.496;8.154;2023-06-10T10:29:02;8.70;;;8.10;;
26594;SDS011;14238;49.496;8.154;2023-06-10T10:31:36;9.37;;;8.77;;
26594;SDS011;14238;49.496;8.154;2023-06-10T10:34:07;9.37;;;8.87;;
26594;SDS011;14238;49.496;8.154;2023-06-10T10:36:37;8.73;;;8.23;;
26594;SDS011;14238;49.496;8.154;2023-06-10T10:39:04;9.80;;;9.20;;
26594;SDS011;14238;49.496;8.154;2023-06-10T10:41:30;10.00;;;9.37;;
26594;SDS011;14238;49.496;8.154;2023-06-10T10:43:57;9.60;;;9.10;;
26594;SDS011;14238;49.496;8.154;2023-06-10T10:46:24;9.63;;;8.93;;
26594;SDS011;14238;49.496;8.154;2023-06-10T10:48:53;10.87;;;9.40;;
26594;SDS011;14238;49.496;8.154;2023-06-10T10:51:22;9.40;;;8.80;;
26594;SDS011;14238;49.496;8.154;2023-06-10T10:56:38;9.50;;;8.80;;
26594;SDS011;14238;49.496;8.154;2023-06-10T10:59:04;9.77;;;9.20;;
26594;SDS011;14238;49.496;8.154;2023-06-10T11:01:43;9.73;;;8.93;;
26594;SDS011;14238;49.496;8.154;2023-06-10T11:04:11;9.47;;;8.97;;
26594;SDS011;14238;49.496;8.154;2023-06-10T11:06:37;9.83;;;9.23;;
26594;SDS011;14238;49.496;8.154;2023-06-10T11:09:25;9.67;;;8.93;;
26594;SDS011;14238;49.496;8.154;2023-06-10T11:11:56;10.20;;;9.50;;
26594;SDS011;14238;49.496;8.154;2023-06-10T11:14:26;10.67;;;9.57;;
26594;SDS011;14238;49.496;8.154;2023-06-10T11:16:54;9.10;;;8.50;;
26594;SDS011;14238;49.496;8.154;2023-06-10T11:19:35;9.80;;;9.10;;
26594;SDS011;14238;49.496;8.154;2023-06-10T11:22:06;8.90;;;8.30;;
26594;SDS011;14238;49.496;8.154;2023-06-10T11:24:32;9.00;;;8.50;;
26594;SDS011;14238;49.496;8.154;2023-06-10T11:29:58;9.20;;;8.50;;
26594;SDS011;14238;49.496;8.154;2023-06-10T11:32:33;9.10;;;8.50;;
26594;SDS011;14238;49.496;8.154;2023-06-10T11:34:59;10.20;;;9.50;;
26594;SDS011;14238;49.496;8.154;2023-06-10T11:37:28;6.80;;;6.43;;
26594;SDS011;14238;49.496;8.154;2023-06-10T11:39:54;7.37;;;6.87;;
26594;SDS011;14238;49.496;8.154;2023-06-10T11:42:21;10.00;;;7.17;;
26594;SDS011;14238;49.496;8.154;2023-06-10T11:44:48;7.10;;;6.70;;
26594;SDS011;14238;49.496;8.154;2023-06-10T11:47:18;6.87;;;6.07;;
26594;SDS011;14238;49.496;8.154;2023-06-10T11:49:45;6.40;;;6.00;;
26594;SDS011;14238;49.496;8.154;2023-06-10T11:52:25;6.80;;;6.30;;
26594;SDS011;14238;49.496;8.154;2023-06-10T11:54:55;7.50;;;6.20;;
26594;SDS011;14238;49.496;8.154;2023-06-10T11:57:21;9.13;;;7.00;;
26594;SDS011;14238;49.496;8.154;2023-06-10T11:59:46;7.10;;;6.60;;
26594;SDS011;14238;49.496;8.154;2023-06-10T12:02:15;6.33;;;5.87;;
26594;SDS011;14238;49.496;8.154;2023-06-10T12:04:42;6.90;;;6.40;;
26594;SDS011;14238;49.496;8.154;2023-06-10T12:07:07;6.50;;;6.20;;
26594;SDS011;14238;49.496;8.154;2023-06-10T12:09:33;6.50;;;6.00;;
26594;SDS011;14238;49.496;8.154;2023-06-10T12:11:59;6.47;;;6.07;;
26594;SDS011;14238;49.496;8.154;2023-06-10T12:17:42;6.20;;;5.90;;
26594;SDS011;14238;49.496;8.154;2023-06-10T12:20:08;6.50;;;6.20;;
26594;SDS011;14238;49.496;8.154;2023-06-10T12:22:49;6.87;;;6.20;;
26594;SDS011;14238;49.496;8.154;2023-06-10T12:25:15;6.70;;;6.30;;
26594;SDS011;14238;49.496;8.154;2023-06-10T12:27:49;5.70;;;5.40;;
26594;SDS011;14238;49.496;8.154;2023-06-10T12:30:18;5.97;;;5.57;;
26594;SDS011;14238;49.496;8.154;2023-06-10T12:32:48;5.87;;;5.67;;
26594;SDS011;14238;49.496;8.154;2023-06-10T12:35:16;6.60;;;6.20;;
26594;SDS011;14238;49.496;8.154;2023-06-10T12:37:53;6.20;;;5.80;;
26594;SDS011;14238;49.496;8.154;2023-06-10T12:40:25;6.17;;;5.87;;
26594;SDS011;14238;49.496;8.154;2023-06-10T12:42:53;5.90;;;5.50;;
26594;SDS011;14238;49.496;8.154;2023-06-10T12:45:29;6.10;;;5.80;;
26594;SDS011;14238;49.496;8.154;2023-06-10T12:50:43;5.77;;;5.47;;
26594;SDS011;14238;49.496;8.154;2023-06-10T12:53:11;5.53;;;5.23;;
26594;SDS011;14238;49.496;8.154;2023-06-10T12:55:37;6.13;;;5.80;;
26594;SDS011;14238;49.496;8.154;2023-06-10T12:58:03;5.43;;;5.23;;
26594;SDS011;14238;49.496;8.154;2023-06-10T13:00:29;5.40;;;5.10;;
26594;SDS011;14238;49.496;8.154;2023-06-10T13:03:00;5.87;;;5.47;;
26594;SDS011;14238;49.496;8.154;2023-06-10T13:05:27;5.37;;;5.07;;
26594;SDS011;14238;49.496;8.154;2023-06-10T13:07:53;6.37;;;6.07;;
26594;SDS011;14238;49.496;8.154;2023-06-10T13:10:20;5.93;;;5.53;;
26594;SDS011;14238;49.496;8.154;2023-06-10T13:12:46;5.50;;;5.30;;
26594;SDS011;14238;49.496;8.154;2023-06-10T13:15:12;5.60;;;5.10;;
26594;SDS011;14238;49.496;8.154;2023-06-10T13:17:39;5.90;;;5.50;;
26594;SDS011;14238;49.496;8.154;2023-06-10T13:20:05;5.93;;;5.53;;
26594;SDS011;14238;49.496;8.154;2023-06-10T13:22:33;5.30;;;5.00;;
26594;SDS011;14238;49.496;8.154;2023-06-10T13:25:00;6.37;;;5.77;;
26594;SDS011;14238;49.496;8.154;2023-06-10T13:27:29;6.87;;;6.40;;
26594;SDS011;14238;49.496;8.154;2023-06-10T13:29:55;5.87;;;5.47;;
26594;SDS011;14238;49.496;8.154;2023-06-10T13:32:21;6.13;;;5.73;;
26594;SDS011;14238;49.496;8.154;2023-06-10T13:34:46;5.90;;;5.60;;
26594;SDS011;14238;49.496;8.154;2023-06-10T13:37:12;6.23;;;5.83;;
26594;SDS011;14238;49.496;8.154;2023-06-10T13:39:38;5.77;;;5.47;;
26594;SDS011;14238;49.496;8.154;2023-06-10T13:42:04;6.60;;;6.20;;
26594;SDS011;14238;49.496;8.154;2023-06-10T13:44:32;6.60;;;6.20;;
26594;SDS011;14238;49.496;8.154;2023-06-10T13:47:01;6.13;;;5.53;;
26594;SDS011;14238;49.496;8.154;2023-06-10T13:49:29;5.80;;;5.50;;
26594;SDS011;14238;49.496;8.154;2023-06-10T13:51:55;6.07;;;5.77;;
26594;SDS011;14238;49.496;8.154;2023-06-10T13:54:21;6.43;;;6.03;;
26594;SDS011;14238;49.496;8.154;2023-06-10T13:56:47;5.97;;;5.57;;
26594;SDS011;14238;49.496;8.154;2023-06-10T13:59:12;6.13;;;5.70;;
26594;SDS011;14238;49.496;8.154;2023-06-10T14:01:38;5.63;;;5.43;;
26594;SDS011;14238;49.496;8.154;2023-06-10T14:04:04;6.40;;;6.00;;
26594;SDS011;14238;49.496;8.154;2023-06-10T14:06:30;7.43;;;6.00;;
26594;SDS011;14238;49.496;8.154;2023-06-10T14:08:57;6.30;;;5.80;;
26594;SDS011;14238;49.496;8.154;2023-06-10T14:11:22;6.40;;;5.90;;
26594;SDS011;14238;49.496;8.154;2023-06-10T14:13:48;7.10;;;6.50;;
26594;SDS011;14238;49.496;8.154;2023-06-10T14:16:13;6.87;;;6.47;;
26594;SDS011;14238;49.496;8.154;2023-06-10T14:18:39;6.53;;;6.13;;
26594;SDS011;14238;49.496;8.154;2023-06-10T14:21:04;6.00;;;5.60;;
26594;SDS011;14238;49.496;8.154;2023-06-10T14:23:30;13.37;;;6.10;;
26594;SDS011;14238;49.496;8.154;2023-06-10T14:25:55;6.17;;;5.87;;
26594;SDS011;14238;49.496;8.154;2023-06-10T14:28:21;6.20;;;5.90;;
26594;SDS011;14238;49.496;8.154;2023-06-10T14:30:47;6.40;;;5.80;;
26594;SDS011;14238;49.496;8.154;2023-06-10T14:33:13;6.70;;;6.20;;
26594;SDS011;14238;49.496;8.154;2023-06-10T14:35:38;6.10;;;5.80;;
26594;SDS011;14238;49.496;8.154;2023-06-10T14:38:04;6.50;;;6.10;;
26594;SDS011;14238;49.496;8.154;2023-06-10T14:40:29;5.97;;;5.47;;
26594;SDS011;14238;49.496;8.154;2023-06-10T14:42:56;7.27;;;6.57;;
26594;SDS011;14238;49.496;8.154;2023-06-10T14:45:22;6.27;;;5.87;;
26594;SDS011;14238;49.496;8.154;2023-06-10T14:47:48;6.70;;;6.23;;
26594;SDS011;14238;49.496;8.154;2023-06-10T14:50:13;6.30;;;5.90;;
26594;SDS011;14238;49.496;8.154;2023-06-10T14:52:39;6.93;;;6.53;;